sensor_id;sensor_type;location;lat;lon;timestamp;P1;durP1;ratioP1;P2;durP2;ratioP2
52342;SDS011;38277;51.972;4.624;2023-03-31T00:04:06;16.7;;;4.0;;
52342;SDS011;38277;51.972;4.624;2023-03-31T00:08:33;16.1;;;4.1;;
52342;SDS011;38277;51.972;4.624;2023-03-31T00:13:09;15.1;;;3.9;;
52342;SDS011;38277;51.972;4.624;2023-03-31T00:17:54;11.1;;;3.1;;
52342;SDS011;38277;51.972;4.624;2023-03-31T00:26:52;14.0;;;3.7;;
52342;SDS011;38277;51.972;4.624;2023-03-31T00:31:21;13.8;;;3.8;;
52342;SDS011;38277;51.972;4.624;2023-03-31T00:35:30;13.1;;;3.2;;
52342;SDS011;38277;51.972;4.624;2023-03-31T00:40:12;13.5;;;3.4;;
52342;SDS011;38277;51.972;4.624;2023-03-31T00:44:29;12.6;;;3.2;;
52342;SDS011;38277;51.972;4.624;2023-03-31T00:49:18;12.9;;;3.6;;
52342;SDS011;38277;51.972;4.624;2023-03-31T00:53:36;13.7;;;3.6;;
52342;SDS011;38277;51.972;4.624;2023-03-31T01:02:54;13.7;;;3.5;;
52342;SDS011;38277;51.972;4.624;2023-03-31T01:07:15;11.7;;;3.0;;
52342;SDS011;38277;51.972;4.624;2023-03-31T01:11:56;14.6;;;4.4;;
52342;SDS011;38277;51.972;4.624;2023-03-31T01:16:13;15.0;;;2.9;;
52342;SDS011;38277;51.972;4.624;2023-03-31T01:25:22;14.7;;;3.0;;
52342;SDS011;38277;51.972;4.624;2023-03-31T01:28:37;11.7;;;3.5;;
52342;SDS011;38277;51.972;4.624;2023-03-31T01:36:27;11.6;;;3.4;;
52342;SDS011;38277;51.972;4.624;2023-03-31T01:44:10;14.3;;;3.5;;
52342;SDS011;38277;51.972;4.624;2023-03-31T01:48:18;14.1;;;3.7;;
52342;SDS011;38277;51.972;4.624;2023-03-31T01:52:26;21.1;;;4.4;;
52342;SDS011;38277;51.972;4.624;2023-03-31T01:56:21;14.7;;;3.3;;
52342;SDS011;38277;51.972;4.624;2023-03-31T02:01:32;13.6;;;3.8;;
52342;SDS011;38277;51.972;4.624;2023-03-31T02:08:00;16.8;;;3.5;;
52342;SDS011;38277;51.972;4.624;2023-03-31T02:10:44;17.4;;;4.8;;
52342;SDS011;38277;51.972;4.624;2023-03-31T02:14:43;16.6;;;3.5;;
52342;SDS011;38277;51.972;4.624;2023-03-31T02:19:17;12.1;;;3.4;;
52342;SDS011;38277;51.972;4.624;2023-03-31T02:23:32;13.2;;;2.6;;
52342;SDS011;38277;51.972;4.624;2023-03-31T02:28:13;11.0;;;3.4;;
52342;SDS011;38277;51.972;4.624;2023-03-31T02:32:30;10.0;;;3.1;;
52342;SDS011;38277;51.972;4.624;2023-03-31T02:36:58;14.6;;;3.3;;
52342;SDS011;38277;51.972;4.624;2023-03-31T02:41:33;15.5;;;3.2;;
52342;SDS011;38277;51.972;4.624;2023-03-31T02:46:00;10.1;;;3.4;;
52342;SDS011;38277;51.972;4.624;2023-03-31T02:50:46;14.8;;;3.2;;
52342;SDS011;38277;51.972;4.624;2023-03-31T02:55:43;14.0;;;3.1;;
52342;SDS011;38277;51.972;4.624;2023-03-31T03:00:13;13.0;;;3.0;;
52342;SDS011;38277;51.972;4.624;2023-03-31T03:05:35;10.9;;;3.1;;
52342;SDS011;38277;51.972;4.624;2023-03-31T03:10:02;8.8;;;2.4;;
52342;SDS011;38277;51.972;4.624;2023-03-31T03:14:39;9.1;;;2.4;;
52342;SDS011;38277;51.972;4.624;2023-03-31T03:17:49;9.6;;;2.6;;
52342;SDS011;38277;51.972;4.624;2023-03-31T03:22:19;8.4;;;2.6;;
52342;SDS011;38277;51.972;4.624;2023-03-31T03:31:14;9.2;;;2.3;;
52342;SDS011;38277;51.972;4.624;2023-03-31T03:35:34;8.9;;;2.3;;
52342;SDS011;38277;51.972;4.624;2023-03-31T03:44:30;13.7;;;2.8;;
52342;SDS011;38277;51.972;4.624;2023-03-31T03:53:56;11.5;;;3.6;;
52342;SDS011;38277;51.972;4.624;2023-03-31T03:58:09;14.4;;;3.8;;
52342;SDS011;38277;51.972;4.624;2023-03-31T04:07:19;16.3;;;4.4;;
52342;SDS011;38277;51.972;4.624;2023-03-31T04:11:32;13.9;;;4.1;;
52342;SDS011;38277;51.972;4.624;2023-03-31T04:17:38;16.1;;;3.5;;
52342;SDS011;38277;51.972;4.624;2023-03-31T04:20:36;14.1;;;3.6;;
52342;SDS011;38277;51.972;4.624;2023-03-31T04:25:23;12.8;;;3.3;;
52342;SDS011;38277;51.972;4.624;2023-03-31T04:31:09;16.0;;;3.7;;
52342;SDS011;38277;51.972;4.624;2023-03-31T04:34:06;9.1;;;3.5;;
52342;SDS011;38277;51.972;4.624;2023-03-31T04:38:44;13.2;;;3.3;;
52342;SDS011;38277;51.972;4.624;2023-03-31T04:43:22;12.0;;;3.4;;
52342;SDS011;38277;51.972;4.624;2023-03-31T04:47:56;11.6;;;2.6;;
52342;SDS011;38277;51.972;4.624;2023-03-31T04:54:05;8.6;;;2.7;;
52342;SDS011;38277;51.972;4.624;2023-03-31T05:10:17;10.9;;;3.0;;
52342;SDS011;38277;51.972;4.624;2023-03-31T05:14:37;11.6;;;2.8;;
52342;SDS011;38277;51.972;4.624;2023-03-31T05:19:23;9.2;;;2.9;;
52342;SDS011;38277;51.972;4.624;2023-03-31T05:23:43;9.8;;;2.5;;
52342;SDS011;38277;51.972;4.624;2023-03-31T05:28:11;9.2;;;3.2;;
52342;SDS011;38277;51.972;4.624;2023-03-31T05:32:32;7.2;;;2.4;;
52342;SDS011;38277;51.972;4.624;2023-03-31T05:37:07;9.1;;;2.5;;
52342;SDS011;38277;51.972;4.624;2023-03-31T05:41:37;11.9;;;3.7;;
52342;SDS011;38277;51.972;4.624;2023-03-31T05:46:11;8.2;;;3.0;;
52342;SDS011;38277;51.972;4.624;2023-03-31T05:52:45;8.0;;;2.8;;
52342;SDS011;38277;51.972;4.624;2023-03-31T05:56:03;7.1;;;2.4;;
52342;SDS011;38277;51.972;4.624;2023-03-31T06:01:00;9.8;;;2.5;;
52342;SDS011;38277;51.972;4.624;2023-03-31T06:08:36;10.2;;;2.1;;
52342;SDS011;38277;51.972;4.624;2023-03-31T06:13:32;5.6;;;1.6;;
52342;SDS011;38277;51.972;4.624;2023-03-31T06:18:30;9.4;;;2.1;;
52342;SDS011;38277;51.972;4.624;2023-03-31T06:23:24;5.3;;;1.7;;
52342;SDS011;38277;51.972;4.624;2023-03-31T06:28:20;7.9;;;2.1;;
52342;SDS011;38277;51.972;4.624;2023-03-31T06:37:13;7.9;;;2.0;;
52342;SDS011;38277;51.972;4.624;2023-03-31T06:42:15;8.1;;;2.0;;
52342;SDS011;38277;51.972;4.624;2023-03-31T06:45:27;6.6;;;2.3;;
52342;SDS011;38277;51.972;4.624;2023-03-31T06:50:23;4.5;;;1.4;;
52342;SDS011;38277;51.972;4.624;2023-03-31T06:55:19;3.6;;;1.1;;
52342;SDS011;38277;51.972;4.624;2023-03-31T07:02:50;6.1;;;2.4;;
52342;SDS011;38277;51.972;4.624;2023-03-31T07:07:46;7.9;;;1.8;;
52342;SDS011;38277;51.972;4.624;2023-03-31T07:12:43;7.1;;;2.4;;
52342;SDS011;38277;51.972;4.624;2023-03-31T07:19:17;6.8;;;2.2;;
52342;SDS011;38277;51.972;4.624;2023-03-31T07:25:27;8.3;;;2.1;;
52342;SDS011;38277;51.972;4.624;2023-03-31T07:30:23;12.3;;;2.7;;
52342;SDS011;38277;51.972;4.624;2023-03-31T07:35:19;10.8;;;3.0;;
52342;SDS011;38277;51.972;4.624;2023-03-31T07:40:17;9.6;;;3.1;;
52342;SDS011;38277;51.972;4.624;2023-03-31T07:43:07;11.5;;;3.1;;
52342;SDS011;38277;51.972;4.624;2023-03-31T07:49:21;12.0;;;3.9;;
52342;SDS011;38277;51.972;4.624;2023-03-31T07:52:26;17.4;;;3.7;;
52342;SDS011;38277;51.972;4.624;2023-03-31T07:56:48;15.9;;;3.4;;
52342;SDS011;38277;51.972;4.624;2023-03-31T08:01:26;14.7;;;3.5;;
52342;SDS011;38277;51.972;4.624;2023-03-31T08:07:14;15.7;;;3.3;;
52342;SDS011;38277;51.972;4.624;2023-03-31T08:09:58;20.6;;;4.8;;
52342;SDS011;38277;51.972;4.624;2023-03-31T08:14:54;12.3;;;3.9;;
52342;SDS011;38277;51.972;4.624;2023-03-31T08:19:09;11.1;;;3.3;;
52342;SDS011;38277;51.972;4.624;2023-03-31T08:25:07;10.1;;;3.7;;
52342;SDS011;38277;51.972;4.624;2023-03-31T08:27:59;11.4;;;3.0;;
52342;SDS011;38277;51.972;4.624;2023-03-31T08:32:37;12.0;;;3.2;;
52342;SDS011;38277;51.972;4.624;2023-03-31T08:37:21;20.7;;;5.8;;
52342;SDS011;38277;51.972;4.624;2023-03-31T08:43:21;16.4;;;4.1;;
52342;SDS011;38277;51.972;4.624;2023-03-31T08:46:20;21.4;;;5.3;;
52342;SDS011;38277;51.972;4.624;2023-03-31T08:50:56;21.4;;;4.2;;
52342;SDS011;38277;51.972;4.624;2023-03-31T08:55:27;16.8;;;4.5;;
52342;SDS011;38277;51.972;4.624;2023-03-31T08:59:39;18.9;;;5.0;;
52342;SDS011;38277;51.972;4.624;2023-03-31T09:08:52;21.1;;;5.2;;
52342;SDS011;38277;51.972;4.624;2023-03-31T09:13:05;23.0;;;6.3;;
52342;SDS011;38277;51.972;4.624;2023-03-31T09:17:40;25.6;;;4.9;;
52342;SDS011;38277;51.972;4.624;2023-03-31T09:22:26;21.5;;;5.3;;
52342;SDS011;38277;51.972;4.624;2023-03-31T09:26:46;16.2;;;4.4;;
52342;SDS011;38277;51.972;4.624;2023-03-31T09:31:23;21.0;;;4.4;;
52342;SDS011;38277;51.972;4.624;2023-03-31T09:35:45;21.3;;;5.3;;
52342;SDS011;38277;51.972;4.624;2023-03-31T09:44:49;23.2;;;5.0;;
52342;SDS011;38277;51.972;4.624;2023-03-31T09:49:11;19.6;;;4.7;;
52342;SDS011;38277;51.972;4.624;2023-03-31T09:53:53;16.6;;;4.0;;
52342;SDS011;38277;51.972;4.624;2023-03-31T09:58:21;16.2;;;4.8;;
52342;SDS011;38277;51.972;4.624;2023-03-31T10:04:27;20.2;;;5.5;;
52342;SDS011;38277;51.972;4.624;2023-03-31T10:07:06;18.7;;;4.7;;
52342;SDS011;38277;51.972;4.624;2023-03-31T10:11:55;21.1;;;3.7;;
52342;SDS011;38277;51.972;4.624;2023-03-31T10:16:23;17.0;;;4.5;;
52342;SDS011;38277;51.972;4.624;2023-03-31T10:22:31;18.3;;;4.0;;
52342;SDS011;38277;51.972;4.624;2023-03-31T10:25:16;13.4;;;3.7;;
52342;SDS011;38277;51.972;4.624;2023-03-31T10:31:16;17.0;;;4.8;;
52342;SDS011;38277;51.972;4.624;2023-03-31T10:34:00;17.5;;;4.4;;
52342;SDS011;38277;51.972;4.624;2023-03-31T10:43:14;17.2;;;4.4;;
52342;SDS011;38277;51.972;4.624;2023-03-31T10:47:44;21.3;;;5.1;;
52342;SDS011;38277;51.972;4.624;2023-03-31T10:52:22;18.0;;;3.8;;
52342;SDS011;38277;51.972;4.624;2023-03-31T10:56:46;16.5;;;4.2;;
52342;SDS011;38277;51.972;4.624;2023-03-31T11:02:03;17.0;;;3.3;;
52342;SDS011;38277;51.972;4.624;2023-03-31T11:06:31;17.6;;;4.5;;
52342;SDS011;38277;51.972;4.624;2023-03-31T11:11:15;15.8;;;4.1;;
52342;SDS011;38277;51.972;4.624;2023-03-31T11:20:29;18.2;;;3.8;;
52342;SDS011;38277;51.972;4.624;2023-03-31T11:25:03;13.0;;;4.4;;
52342;SDS011;38277;51.972;4.624;2023-03-31T11:29:16;14.6;;;3.5;;
52342;SDS011;38277;51.972;4.624;2023-03-31T11:33:47;10.4;;;2.9;;
52342;SDS011;38277;51.972;4.624;2023-03-31T11:39:46;11.6;;;2.9;;
52342;SDS011;38277;51.972;4.624;2023-03-31T11:42:44;9.9;;;2.4;;
52342;SDS011;38277;51.972;4.624;2023-03-31T11:46:38;10.5;;;2.3;;
52342;SDS011;38277;51.972;4.624;2023-03-31T11:55:24;12.2;;;2.7;;
52342;SDS011;38277;51.972;4.624;2023-03-31T11:59:58;10.5;;;2.4;;
52342;SDS011;38277;51.972;4.624;2023-03-31T12:04:16;12.7;;;3.1;;
52342;SDS011;38277;51.972;4.624;2023-03-31T12:08:39;8.7;;;2.4;;
52342;SDS011;38277;51.972;4.624;2023-03-31T12:13:50;11.5;;;2.7;;
52342;SDS011;38277;51.972;4.624;2023-03-31T12:17:46;14.2;;;3.1;;
52342;SDS011;38277;51.972;4.624;2023-03-31T12:22:05;11.9;;;2.9;;
52342;SDS011;38277;51.972;4.624;2023-03-31T12:31:24;11.0;;;2.9;;
52342;SDS011;38277;51.972;4.624;2023-03-31T12:36:32;13.9;;;3.0;;
52342;SDS011;38277;51.972;4.624;2023-03-31T12:41:13;11.4;;;3.2;;
52342;SDS011;38277;51.972;4.624;2023-03-31T12:45:28;12.3;;;3.2;;
52342;SDS011;38277;51.972;4.624;2023-03-31T12:50:42;13.0;;;3.3;;
52342;SDS011;38277;51.972;4.624;2023-03-31T12:55:46;12.5;;;3.1;;
52342;SDS011;38277;51.972;4.624;2023-03-31T12:58:45;14.9;;;4.3;;
52342;SDS011;38277;51.972;4.624;2023-03-31T13:07:36;8.4;;;2.3;;
52342;SDS011;38277;51.972;4.624;2023-03-31T13:11:52;9.0;;;2.0;;
52342;SDS011;38277;51.972;4.624;2023-03-31T13:16:06;10.0;;;2.1;;
52342;SDS011;38277;51.972;4.624;2023-03-31T13:20:37;11.9;;;2.9;;
52342;SDS011;38277;51.972;4.624;2023-03-31T13:25:25;7.1;;;2.4;;
52342;SDS011;38277;51.972;4.624;2023-03-31T13:29:48;12.4;;;2.8;;
52342;SDS011;38277;51.972;4.624;2023-03-31T13:34:01;11.8;;;3.1;;
52342;SDS011;38277;51.972;4.624;2023-03-31T13:39:26;14.6;;;2.8;;
52342;SDS011;38277;51.972;4.624;2023-03-31T13:44:50;11.3;;;2.4;;
52342;SDS011;38277;51.972;4.624;2023-03-31T13:50:16;10.3;;;2.2;;
52342;SDS011;38277;51.972;4.624;2023-03-31T13:54:52;9.2;;;2.6;;
52342;SDS011;38277;51.972;4.624;2023-03-31T13:59:54;13.2;;;3.0;;
52342;SDS011;38277;51.972;4.624;2023-03-31T14:05:24;8.7;;;2.8;;
52342;SDS011;38277;51.972;4.624;2023-03-31T14:08:02;9.6;;;2.6;;
52342;SDS011;38277;51.972;4.624;2023-03-31T14:10:24;9.9;;;2.4;;
52342;SDS011;38277;51.972;4.624;2023-03-31T14:14:39;7.5;;;1.7;;
52342;SDS011;38277;51.972;4.624;2023-03-31T14:19:34;8.7;;;1.9;;
52342;SDS011;38277;51.972;4.624;2023-03-31T14:24:22;6.4;;;1.7;;
52342;SDS011;38277;51.972;4.624;2023-03-31T14:33:02;7.0;;;1.9;;
52342;SDS011;38277;51.972;4.624;2023-03-31T14:37:25;10.4;;;2.3;;
52342;SDS011;38277;51.972;4.624;2023-03-31T14:41:52;8.4;;;1.8;;
52342;SDS011;38277;51.972;4.624;2023-03-31T14:46:20;10.6;;;2.4;;
52342;SDS011;38277;51.972;4.624;2023-03-31T14:50:29;9.3;;;2.0;;
52342;SDS011;38277;51.972;4.624;2023-03-31T14:55:04;8.5;;;1.8;;
52342;SDS011;38277;51.972;4.624;2023-03-31T15:04:19;7.5;;;2.3;;
52342;SDS011;38277;51.972;4.624;2023-03-31T15:13:30;8.1;;;2.5;;
52342;SDS011;38277;51.972;4.624;2023-03-31T15:17:31;6.9;;;1.7;;
52342;SDS011;38277;51.972;4.624;2023-03-31T15:22:23;9.1;;;3.3;;
52342;SDS011;38277;51.972;4.624;2023-03-31T15:31:02;7.0;;;2.2;;
52342;SDS011;38277;51.972;4.624;2023-03-31T15:35:45;5.9;;;1.9;;
52342;SDS011;38277;51.972;4.624;2023-03-31T15:40:20;8.7;;;2.0;;
52342;SDS011;38277;51.972;4.624;2023-03-31T15:44:52;9.0;;;2.9;;
52342;SDS011;38277;51.972;4.624;2023-03-31T15:49:17;5.8;;;2.0;;
52342;SDS011;38277;51.972;4.624;2023-03-31T15:53:36;8.7;;;2.1;;
52342;SDS011;38277;51.972;4.624;2023-03-31T15:58:03;5.9;;;1.6;;
52342;SDS011;38277;51.972;4.624;2023-03-31T16:02:35;7.9;;;1.7;;
52342;SDS011;38277;51.972;4.624;2023-03-31T16:07:02;5.4;;;1.6;;
52342;SDS011;38277;51.972;4.624;2023-03-31T16:11:44;4.8;;;1.6;;
52342;SDS011;38277;51.972;4.624;2023-03-31T16:16:24;9.9;;;2.1;;
52342;SDS011;38277;51.972;4.624;2023-03-31T16:20:54;9.2;;;2.3;;
52342;SDS011;38277;51.972;4.624;2023-03-31T16:29:27;6.4;;;1.9;;
52342;SDS011;38277;51.972;4.624;2023-03-31T16:34:27;5.8;;;2.1;;
52342;SDS011;38277;51.972;4.624;2023-03-31T16:38:28;6.6;;;2.4;;
52342;SDS011;38277;51.972;4.624;2023-03-31T16:47:46;7.1;;;2.1;;
52342;SDS011;38277;51.972;4.624;2023-03-31T16:51:59;5.8;;;1.8;;
52342;SDS011;38277;51.972;4.624;2023-03-31T16:56:47;6.3;;;1.8;;
52342;SDS011;38277;51.972;4.624;2023-03-31T17:05:56;9.5;;;2.0;;
52342;SDS011;38277;51.972;4.624;2023-03-31T17:10:13;6.4;;;2.2;;
52342;SDS011;38277;51.972;4.624;2023-03-31T17:14:51;11.3;;;3.6;;
52342;SDS011;38277;51.972;4.624;2023-03-31T17:23:50;8.9;;;2.8;;
52342;SDS011;38277;51.972;4.624;2023-03-31T17:28:16;7.2;;;3.0;;
52342;SDS011;38277;51.972;4.624;2023-03-31T17:33:32;10.2;;;3.6;;
52342;SDS011;38277;51.972;4.624;2023-03-31T17:36:59;9.8;;;2.8;;
52342;SDS011;38277;51.972;4.624;2023-03-31T17:41:56;12.1;;;4.0;;
52342;SDS011;38277;51.972;4.624;2023-03-31T17:46:25;8.8;;;2.9;;
52342;SDS011;38277;51.972;4.624;2023-03-31T17:51:41;15.0;;;3.7;;
52342;SDS011;38277;51.972;4.624;2023-03-31T17:55:09;8.4;;;2.6;;
52342;SDS011;38277;51.972;4.624;2023-03-31T17:59:38;11.2;;;2.9;;
52342;SDS011;38277;51.972;4.624;2023-03-31T18:04:24;10.6;;;3.0;;
52342;SDS011;38277;51.972;4.624;2023-03-31T18:09:31;14.7;;;3.7;;
52342;SDS011;38277;51.972;4.624;2023-03-31T18:13:05;19.0;;;4.2;;
52342;SDS011;38277;51.972;4.624;2023-03-31T18:18:42;13.2;;;3.7;;
52342;SDS011;38277;51.972;4.624;2023-03-31T18:22:25;12.9;;;4.3;;
52342;SDS011;38277;51.972;4.624;2023-03-31T18:27:15;15.3;;;3.8;;
52342;SDS011;38277;51.972;4.624;2023-03-31T18:31:04;14.9;;;3.4;;
52342;SDS011;38277;51.972;4.624;2023-03-31T18:36:30;15.7;;;3.2;;
52342;SDS011;38277;51.972;4.624;2023-03-31T18:40:11;13.7;;;3.6;;
52342;SDS011;38277;51.972;4.624;2023-03-31T18:49:18;12.8;;;3.5;;
52342;SDS011;38277;51.972;4.624;2023-03-31T18:54:40;16.8;;;6.8;;
52342;SDS011;38277;51.972;4.624;2023-03-31T18:58:10;11.7;;;3.3;;
52342;SDS011;38277;51.972;4.624;2023-03-31T19:03:31;10.6;;;3.2;;
52342;SDS011;38277;51.972;4.624;2023-03-31T19:25:17;14.2;;;4.0;;
52342;SDS011;38277;51.972;4.624;2023-03-31T19:43:22;9.3;;;2.8;;
52342;SDS011;38277;51.972;4.624;2023-03-31T19:56:32;12.6;;;3.1;;
52342;SDS011;38277;51.972;4.624;2023-03-31T20:01:25;13.9;;;3.3;;
52342;SDS011;38277;51.972;4.624;2023-03-31T20:14:39;20.0;;;4.8;;
52342;SDS011;38277;51.972;4.624;2023-03-31T20:28:18;21.5;;;5.9;;
52342;SDS011;38277;51.972;4.624;2023-03-31T20:37:22;37.7;;;8.5;;
52342;SDS011;38277;51.972;4.624;2023-03-31T20:50:38;22.2;;;4.9;;
52342;SDS011;38277;51.972;4.624;2023-03-31T21:08:32;24.0;;;6.0;;
52342;SDS011;38277;51.972;4.624;2023-03-31T21:13:03;25.9;;;6.3;;
52342;SDS011;38277;51.972;4.624;2023-03-31T21:22:09;26.9;;;5.7;;
52342;SDS011;38277;51.972;4.624;2023-03-31T21:26:43;25.1;;;5.8;;
52342;SDS011;38277;51.972;4.624;2023-03-31T21:31:07;26.0;;;7.0;;
52342;SDS011;38277;51.972;4.624;2023-03-31T21:40:50;27.4;;;7.0;;
52342;SDS011;38277;51.972;4.624;2023-03-31T21:44:43;22.4;;;6.7;;
52342;SDS011;38277;51.972;4.624;2023-03-31T21:49:15;22.5;;;6.0;;
52342;SDS011;38277;51.972;4.624;2023-03-31T21:53:50;20.8;;;6.0;;
52342;SDS011;38277;51.972;4.624;2023-03-31T21:59:07;16.7;;;6.3;;
52342;SDS011;38277;51.972;4.624;2023-03-31T22:04:04;20.0;;;7.3;;
52342;SDS011;38277;51.972;4.624;2023-03-31T22:07:11;26.1;;;7.4;;
52342;SDS011;38277;51.972;4.624;2023-03-31T22:11:46;23.6;;;6.0;;
52342;SDS011;38277;51.972;4.624;2023-03-31T22:16:23;25.9;;;6.9;;
52342;SDS011;38277;51.972;4.624;2023-03-31T22:20:34;26.8;;;6.2;;
52342;SDS011;38277;51.972;4.624;2023-03-31T22:24:58;25.5;;;6.6;;
52342;SDS011;38277;51.972;4.624;2023-03-31T22:29:41;24.8;;;7.3;;
52342;SDS011;38277;51.972;4.624;2023-03-31T22:34:45;27.4;;;5.9;;
52342;SDS011;38277;51.972;4.624;2023-03-31T22:38:50;26.3;;;6.3;;
52342;SDS011;38277;51.972;4.624;2023-03-31T22:42:59;23.4;;;6.1;;
52342;SDS011;38277;51.972;4.624;2023-03-31T22:47:49;28.9;;;8.4;;
52342;SDS011;38277;51.972;4.624;2023-03-31T22:52:56;25.0;;;9.5;;
52342;SDS011;38277;51.972;4.624;2023-03-31T22:56:27;19.0;;;7.8;;
52342;SDS011;38277;51.972;4.624;2023-03-31T23:01:07;29.8;;;8.5;;
52342;SDS011;38277;51.972;4.624;2023-03-31T23:05:33;32.1;;;8.5;;
52342;SDS011;38277;51.972;4.624;2023-03-31T23:10:20;27.8;;;7.9;;
52342;SDS011;38277;51.972;4.624;2023-03-31T23:15:32;27.9;;;9.2;;
52342;SDS011;38277;51.972;4.624;2023-03-31T23:19:12;26.5;;;8.1;;
52342;SDS011;38277;51.972;4.624;2023-03-31T23:23:33;28.8;;;8.6;;
52342;SDS011;38277;51.972;4.624;2023-03-31T23:28:04;21.4;;;6.9;;
52342;SDS011;38277;51.972;4.624;2023-03-31T23:33:26;23.5;;;8.1;;
52342;SDS011;38277;51.972;4.624;2023-03-31T23:37:07;24.1;;;7.1;;
52342;SDS011;38277;51.972;4.624;2023-03-31T23:42:39;30.2;;;8.7;;
52342;SDS011;38277;51.972;4.624;2023-03-31T23:46:20;29.0;;;9.6;;
52342;SDS011;38277;51.972;4.624;2023-03-31T23:51:25;28.8;;;7.8;;
52342;SDS011;38277;51.972;4.624;2023-03-31T23:54:59;28.6;;;10.1;;
52342;SDS011;38277;51.972;4.624;2023-03-31T23:59:53;25.5;;;9.7;;
